Time;durP1;ratioP1;P1;durP2;ratioP2;P2;SDS_P1;SDS_P2;PMS_P1;PMS_P2;Temp;Humidity;BMP_temperature;BMP_pressure;BME280_temperature;BME280_humidity;BME280_pressure;Samples;Min_cycle;Max_cycle;Signal;HPM_P1;HPM_P2
2021/09/13 00:02:46;;;;;;;3.17;1.20;;;20.10;74.30;;;;;;10492402;28;20195;-69
2021/09/13 00:08:08;;;;;;;1.43;1.30;;;20.10;74.30;;;;;;10492312;28;20220;-69
2021/09/13 00:13:30;;;;;;;1.20;1.10;;;20.10;74.30;;;;;;10492331;28;20223;-69
2021/09/13 00:18:53;;;;;;;1.20;1.10;;;20.10;74.20;;;;;;10492335;28;20734;-68
2021/09/13 00:24:15;;;;;;;1.70;1.23;;;20.10;74.10;;;;;;10489800;28;20229;-69
2021/09/13 00:29:37;;;;;;;1.10;1.00;;;20.10;74.00;;;;;;10466814;28;20225;-69
2021/09/13 00:35:01;;;;;;;1.13;1.00;;;20.00;73.90;;;;;;10478223;28;20226;-69
2021/09/13 00:40:23;;;;;;;3.27;1.33;;;20.00;73.80;;;;;;10491882;28;20203;-69
2021/09/13 00:45:45;;;;;;;1.60;1.23;;;20.00;73.80;;;;;;10491913;28;20216;-69
2021/09/13 00:51:09;;;;;;;1.43;1.07;;;20.00;73.70;;;;;;10489955;28;20203;-69
2021/09/13 00:56:31;;;;;;;0.80;0.80;;;20.00;73.70;;;;;;10491075;28;20597;-69
2021/09/13 01:01:53;;;;;;;2.93;1.30;;;20.00;73.60;;;;;;10489984;28;20227;-69
2021/09/13 01:07:17;;;;;;;1.07;1.00;;;20.00;73.80;;;;;;10492018;28;20209;-69
2021/09/13 01:12:39;;;;;;;2.07;1.03;;;20.00;74.50;;;;;;10497912;28;20297;-69
2021/09/13 01:18:01;;;;;;;2.83;1.20;;;20.00;74.60;;;;;;10496890;28;20422;-69
2021/09/13 01:23:26;;;;;;;1.67;1.23;;;20.30;73.00;;;;;;10497587;28;20188;-67
2021/09/13 01:28:49;;;;;;;1.63;0.90;;;20.20;73.60;;;;;;10457390;28;20279;-69
2021/09/13 01:34:11;;;;;;;2.13;1.30;;;20.10;73.90;;;;;;10480725;28;20223;-69
2021/09/13 01:39:34;;;;;;;1.33;0.90;;;20.00;74.00;;;;;;10495807;28;20283;-69
2021/09/13 01:44:56;;;;;;;1.70;1.03;;;20.00;74.00;;;;;;10497401;28;20204;-69
2021/09/13 01:50:18;;;;;;;1.37;1.07;;;20.00;73.90;;;;;;10497586;28;20204;-69
2021/09/13 01:55:42;;;;;;;1.03;0.80;;;19.90;73.70;;;;;;10498223;28;20216;-69
2021/09/13 02:01:04;;;;;;;1.80;1.10;;;20.00;73.70;;;;;;10488808;28;20674;-69
2021/09/13 02:06:26;;;;;;;1.10;1.00;;;19.90;73.50;;;;;;10455231;28;20583;-68
2021/09/13 02:11:49;;;;;;;1.53;1.03;;;19.90;73.40;;;;;;10455012;28;20582;-69
2021/09/13 02:17:12;;;;;;;0.93;0.87;;;20.00;73.30;;;;;;10488789;28;20212;-69
2021/09/13 02:22:34;;;;;;;1.23;1.00;;;19.90;73.00;;;;;;10494328;28;20188;-69
2021/09/13 02:27:57;;;;;;;1.13;0.90;;;19.90;72.90;;;;;;10512904;22;20326;-63
2021/09/13 02:33:19;;;;;;;1.80;1.00;;;20.00;72.90;;;;;;10495064;28;20212;-64
2021/09/13 02:38:41;;;;;;;2.27;1.23;;;19.90;72.80;;;;;;10495756;28;20220;-63
2021/09/13 02:44:05;;;;;;;1.47;0.90;;;19.90;72.80;;;;;;10463608;28;20198;-63
2021/09/13 02:49:27;;;;;;;3.47;1.00;;;19.90;72.90;;;;;;10464613;28;20570;-63
2021/09/13 02:54:49;;;;;;;2.47;1.10;;;19.90;74.00;;;;;;10494442;28;20600;-64
2021/09/13 03:00:14;;;;;;;2.30;1.00;;;19.90;74.10;;;;;;10494308;28;20220;-63
2021/09/13 03:05:36;;;;;;;1.80;0.83;;;19.90;73.80;;;;;;10493842;28;20379;-63
2021/09/13 03:10:58;;;;;;;2.23;0.90;;;19.90;74.20;;;;;;10493487;28;20676;-63
2021/09/13 03:16:21;;;;;;;2.07;0.90;;;19.90;74.40;;;;;;10493936;28;20590;-64
2021/09/13 03:21:43;;;;;;;1.80;1.00;;;19.90;74.40;;;;;;10492996;28;20207;-64
2021/09/13 03:27:05;;;;;;;1.47;1.00;;;19.90;74.30;;;;;;10493430;28;20220;-63
2021/09/13 03:32:29;;;;;;;2.00;0.90;;;19.90;74.20;;;;;;10492523;28;20192;-62
2021/09/13 03:37:51;;;;;;;2.37;1.03;;;19.90;74.10;;;;;;10493614;28;20632;-63
2021/09/13 03:43:13;;;;;;;1.97;1.30;;;19.90;74.00;;;;;;10492443;28;20565;-63
2021/09/13 03:48:37;;;;;;;2.37;1.20;;;19.90;73.90;;;;;;10491762;28;20223;-62
2021/09/13 03:53:59;;;;;;;4.17;1.40;;;19.90;74.40;;;;;;10490717;28;20216;-63
2021/09/13 03:59:21;;;;;;;2.30;1.40;;;19.90;74.70;;;;;;10491998;28;20221;-62
2021/09/13 04:04:48;;;;;;;3.23;1.43;;;19.90;74.40;;;;;;10493172;28;20188;-63
2021/09/13 04:10:19;;;;;;;1.83;1.30;;;19.90;74.20;;;;;;10491671;28;20216;-63
2021/09/13 04:15:42;;;;;;;2.03;1.23;;;19.90;74.50;;;;;;10492749;28;20216;-63
2021/09/13 04:21:06;;;;;;;3.53;1.70;;;19.90;74.60;;;;;;10490336;28;20191;-64
2021/09/13 04:26:28;;;;;;;2.70;1.57;;;19.90;74.60;;;;;;10489921;28;20220;-63
2021/09/13 04:31:50;;;;;;;2.97;1.57;;;19.90;74.50;;;;;;10488652;28;20657;-63
2021/09/13 04:37:13;;;;;;;1.77;1.23;;;19.90;74.50;;;;;;10490312;28;20236;-63
2021/09/13 04:42:36;;;;;;;3.60;1.60;;;19.90;74.50;;;;;;10492346;28;20207;-63
2021/09/13 04:47:58;;;;;;;4.53;1.63;;;19.80;74.40;;;;;;10498874;28;20223;-63
2021/09/13 04:53:22;;;;;;;4.00;2.07;;;19.80;74.40;;;;;;10458087;28;20205;-64
2021/09/13 04:58:44;;;;;;;4.37;2.27;;;19.80;74.40;;;;;;10457773;28;20705;-63
2021/09/13 05:04:09;;;;;;;4.27;2.57;;;19.80;74.40;;;;;;10457739;28;20674;-63
2021/09/13 05:09:32;;;;;;;4.70;2.70;;;19.80;74.40;;;;;;10457746;28;20213;-63
2021/09/13 05:14:54;;;;;;;4.80;3.13;;;19.90;74.40;;;;;;10496639;28;20228;-64
2021/09/13 05:20:16;;;;;;;5.00;3.00;;;19.80;74.30;;;;;;10497996;28;20209;-63
2021/09/13 05:25:40;;;;;;;4.83;3.33;;;19.80;74.30;;;;;;10498047;28;20577;-63
2021/09/13 05:31:02;;;;;;;5.17;4.03;;;19.80;74.30;;;;;;10497829;28;20195;-63
2021/09/13 05:36:24;;;;;;;6.27;3.77;;;19.80;74.40;;;;;;10487291;28;20220;-62
2021/09/13 05:41:48;;;;;;;5.67;3.70;;;19.80;74.80;;;;;;10467316;28;20598;-63
2021/09/13 05:47:10;;;;;;;5.53;3.63;;;19.80;75.10;;;;;;10497761;28;20217;-64
2021/09/13 05:52:32;;;;;;;4.83;3.50;;;19.80;75.20;;;;;;10488854;28;20630;-55
2021/09/13 05:57:56;;;;;;;6.50;3.70;;;19.80;74.10;;;;;;10468973;28;20223;-52
2021/09/13 06:03:18;;;;;;;6.50;3.57;;;19.90;74.40;;;;;;10469152;28;20773;-51
2021/09/13 06:08:40;;;;;;;4.63;3.30;;;19.90;74.60;;;;;;10465975;28;20713;-56
2021/09/13 06:14:03;;;;;;;3.87;3.43;;;19.90;74.60;;;;;;10454308;28;20224;-57
2021/09/13 06:19:26;;;;;;;4.77;3.43;;;19.80;74.70;;;;;;10472347;28;20236;-56
2021/09/13 06:24:48;;;;;;;6.73;3.83;;;19.90;74.50;;;;;;10458334;28;20208;-52
2021/09/13 06:30:12;;;;;;;4.23;3.33;;;19.90;74.60;;;;;;10466110;28;20225;-51
2021/09/13 06:35:34;;;;;;;4.20;3.33;;;19.90;74.90;;;;;;10460202;28;20216;-52
2021/09/13 06:40:56;;;;;;;4.63;3.40;;;19.90;75.10;;;;;;10456056;28;20208;-54
2021/09/13 06:46:22;;;;;;;5.60;3.67;;;19.80;75.10;;;;;;10462207;28;20220;-52
2021/09/13 06:51:44;;;;;;;5.33;3.30;;;19.90;73.70;;;;;;10478764;28;20209;-52
2021/09/13 06:57:07;;;;;;;4.93;3.50;;;19.90;74.60;;;;;;10488256;28;20597;-50
2021/09/13 07:02:31;;;;;;;4.07;3.03;;;19.90;74.70;;;;;;10493497;28;20208;-57
2021/09/13 07:07:53;;;;;;;3.67;3.00;;;19.90;73.70;;;;;;10452150;28;20686;-56
2021/09/13 07:13:15;;;;;;;3.67;2.87;;;19.90;74.60;;;;;;10472098;28;20562;-58
2021/09/13 07:18:39;;;;;;;6.83;3.00;;;19.90;74.80;;;;;;10493869;28;20212;-55
2021/09/13 07:24:01;;;;;;;3.10;2.40;;;19.90;73.80;;;;;;10491318;28;20192;-51
2021/09/13 07:29:23;;;;;;;3.43;2.80;;;19.90;74.60;;;;;;10472429;28;20224;-55
2021/09/13 07:34:46;;;;;;;5.27;2.70;;;19.90;74.50;;;;;;10492951;28;20216;-49
2021/09/13 07:40:10;;;;;;;3.63;2.60;;;20.00;74.10;;;;;;10492284;28;20529;-51
2021/09/13 07:45:32;;;;;;;4.63;2.40;;;19.90;74.70;;;;;;10492293;28;20196;-49
2021/09/13 07:50:55;;;;;;;4.10;2.43;;;19.90;74.10;;;;;;10482767;28;20212;-48
2021/09/13 07:56:18;;;;;;;3.10;1.90;;;20.00;74.40;;;;;;10476776;28;20224;-49
2021/09/13 08:01:40;;;;;;;2.17;1.97;;;19.90;74.70;;;;;;10492769;28;20192;-52
2021/09/13 08:07:03;;;;;;;3.00;2.00;;;20.00;73.80;;;;;;10492308;28;20204;-52
2021/09/13 08:12:25;;;;;;;2.33;1.87;;;19.90;74.20;;;;;;10459700;28;20555;-47
2021/09/13 08:17:47;;;;;;;2.30;1.67;;;19.90;74.60;;;;;;10452711;28;20232;-51
2021/09/13 08:23:11;;;;;;;2.67;1.50;;;19.90;73.60;;;;;;10458896;28;20203;-53
2021/09/13 08:28:34;;;;;;;2.57;1.87;;;19.90;74.40;;;;;;10537174;22;20227;-57
2021/09/13 08:33:56;;;;;;;3.77;1.70;;;20.00;74.90;;;;;;10500480;28;20219;-56
2021/09/13 08:39:20;;;;;;;2.63;1.57;;;19.90;73.80;;;;;;10515739;28;20215;-58
2021/09/13 08:44:46;;;;;;;2.40;1.63;;;19.90;74.40;;;;;;10540151;28;20195;-55
2021/09/13 08:50:23;;;;;;;1.97;1.40;;;19.90;74.80;;;;;;10541785;28;20400;-55
2021/09/13 08:55:50;;;;;;;1.50;1.20;;;20.00;73.80;;;;;;10541650;28;20727;-59
2021/09/13 09:01:12;;;;;;;3.53;1.60;;;19.90;74.20;;;;;;10541436;28;20192;-61
2021/09/13 09:06:37;;;;;;;1.40;1.20;;;19.90;74.60;;;;;;10541873;28;20298;-58
2021/09/13 09:12:02;;;;;;;1.83;1.30;;;19.90;73.70;;;;;;10540066;28;20223;-60
2021/09/13 09:17:26;;;;;;;1.97;1.33;;;20.00;74.60;;;;;;10540269;28;20223;-56
2021/09/13 09:22:59;;;;;;;1.98;1.30;;;19.90;74.70;;;;;;10540038;28;20413;-66
2021/09/13 09:28:26;;;;;;;1.17;1.07;;;19.90;73.50;;;;;;10551461;28;20873;-66
2021/09/13 09:33:49;;;;;;;1.40;1.17;;;19.90;74.00;;;;;;10582344;28;20560;-65
2021/09/13 09:39:12;;;;;;;1.80;1.00;;;19.90;74.40;;;;;;10569938;28;20223;-65
2021/09/13 09:44:35;;;;;;;2.47;1.07;;;19.90;73.70;;;;;;10539534;28;20285;-66
2021/09/13 09:50:00;;;;;;;2.53;1.13;;;19.90;74.20;;;;;;10536958;28;20588;-66
2021/09/13 09:55:22;;;;;;;1.23;0.87;;;19.90;74.40;;;;;;10538658;28;20212;-66
2021/09/13 10:00:47;;;;;;;2.03;0.90;;;19.90;73.70;;;;;;10538799;28;20222;-66
2021/09/13 10:06:09;;;;;;;1.33;1.20;;;19.90;74.50;;;;;;10537700;28;20188;-66
2021/09/13 10:11:32;;;;;;;1.57;1.07;;;19.90;74.40;;;;;;10537758;28;20723;-65
2021/09/13 10:16:56;;;;;;;1.60;1.10;;;19.90;73.60;;;;;;10496791;28;20223;-66
2021/09/13 10:22:18;;;;;;;1.13;0.73;;;19.90;74.20;;;;;;10532009;28;20700;-67
2021/09/13 10:27:42;;;;;;;1.20;0.63;;;19.90;74.50;;;;;;10544762;28;20724;-66
2021/09/13 10:33:13;;;;;;;1.30;0.83;;;19.90;73.40;;;;;;10580432;28;20228;-66
2021/09/13 10:38:43;;;;;;;1.90;0.90;;;19.90;74.10;;;;;;10513117;28;20580;-66
2021/09/13 10:44:06;;;;;;;1.37;0.80;;;19.90;74.30;;;;;;10537614;28;20188;-67
2021/09/13 10:49:30;;;;;;;1.43;0.80;;;19.90;73.80;;;;;;10520993;28;20593;-67
2021/09/13 10:55:18;;;;;;;1.67;0.80;;;19.90;74.40;;;;;;10495213;28;20769;-66
2021/09/13 11:01:00;;;;;;;1.37;0.70;;;19.90;73.90;;;;;;10512106;28;20253;-67
2021/09/13 11:06:44;;;;;;;4.57;0.87;;;19.90;73.50;;;;;;10532482;28;20215;-67
2021/09/13 11:12:07;;;;;;;1.40;0.80;;;19.90;73.80;;;;;;10535260;28;20195;-66
2021/09/13 11:17:29;;;;;;;1.37;0.93;;;19.90;74.00;;;;;;10536511;28;20332;-66
2021/09/13 11:22:52;;;;;;;1.23;0.80;;;19.90;74.00;;;;;;10535489;28;20195;-67
2021/09/13 11:28:14;;;;;;;0.63;0.57;;;19.90;74.40;;;;;;10541629;28;20584;-68
2021/09/13 11:33:40;;;;;;;1.57;0.80;;;19.80;73.90;;;;;;10533331;28;20687;-67
2021/09/13 11:39:08;;;;;;;0.97;0.67;;;19.90;73.80;;;;;;10534796;28;20212;-67
2021/09/13 11:44:31;;;;;;;1.63;0.70;;;19.90;74.10;;;;;;10542666;28;20601;-63
2021/09/13 11:49:55;;;;;;;0.40;0.40;;;19.90;73.70;;;;;;10535899;28;20234;-66
2021/09/13 11:55:21;;;;;;;0.70;0.60;;;19.90;74.00;;;;;;10532802;28;20223;-68
2021/09/13 12:00:46;;;;;;;1.20;0.67;;;19.90;74.30;;;;;;10550767;28;20245;-68
2021/09/13 12:06:18;;;;;;;1.23;0.70;;;19.90;73.40;;;;;;10533613;28;20195;-68
2021/09/13 12:11:42;;;;;;;0.70;0.70;;;19.90;74.00;;;;;;10532181;28;20191;-68
2021/09/13 12:17:05;;;;;;;0.80;0.47;;;19.80;74.20;;;;;;10532990;28;20211;-68
2021/09/13 12:22:35;;;;;;;2.83;0.63;;;19.90;74.00;;;;;;10533906;28;20202;-68
2021/09/13 12:28:03;;;;;;;1.57;0.60;;;19.90;74.10;;;;;;10542694;28;20242;-68
2021/09/13 12:33:36;;;;;;;1.70;0.70;;;19.90;74.40;;;;;;10548120;28;20417;-68
2021/09/13 12:38:59;;;;;;;0.50;0.40;;;20.10;72.60;;;;;;10532785;28;20217;-68
2021/09/13 12:44:26;;;;;;;1.13;0.70;;;19.90;73.60;;;;;;10534841;28;20192;-66
2021/09/13 12:49:51;;;;;;;1.80;0.67;;;19.90;73.90;;;;;;10535701;28;20223;-66
2021/09/13 12:55:21;;;;;;;0.60;0.60;;;19.90;73.30;;;;;;10531044;28;20216;-66
2021/09/13 13:00:45;;;;;;;3.10;0.67;;;19.90;74.10;;;;;;10491431;28;20223;-66
2021/09/13 13:06:15;;;;;;;0.70;0.50;;;19.90;74.10;;;;;;10516123;28;20191;-66
2021/09/13 13:11:39;;;;;;;0.67;0.40;;;19.90;73.60;;;;;;10538370;28;20238;-65
2021/09/13 13:17:02;;;;;;;0.63;0.63;;;19.90;74.10;;;;;;10521539;28;20216;-65
2021/09/13 13:22:25;;;;;;;0.63;0.50;;;19.90;74.00;;;;;;10498405;28;20207;-67
2021/09/13 13:27:47;;;;;;;1.20;0.40;;;19.90;73.60;;;;;;10516256;28;20760;-67
2021/09/13 13:33:11;;;;;;;1.43;0.67;;;19.90;74.20;;;;;;10581256;28;20190;-66
2021/09/13 13:38:33;;;;;;;1.77;0.70;;;19.90;73.70;;;;;;10572795;28;20227;-67
2021/09/13 13:43:55;;;;;;;1.20;0.60;;;19.90;74.00;;;;;;10538810;28;20188;-66
2021/09/13 13:49:18;;;;;;;0.50;0.50;;;19.90;74.30;;;;;;10517589;28;20213;-68
2021/09/13 13:54:40;;;;;;;1.13;0.50;;;19.90;73.40;;;;;;10525871;28;20211;-66
2021/09/13 14:00:03;;;;;;;0.77;0.50;;;19.90;73.60;;;;;;10538431;28;20230;-66
2021/09/13 14:05:27;;;;;;;0.93;0.50;;;19.90;74.00;;;;;;10538489;28;20195;-66
2021/09/13 14:10:49;;;;;;;0.60;0.50;;;19.90;73.50;;;;;;10537195;28;20298;-66
2021/09/13 14:16:11;;;;;;;0.70;0.50;;;19.90;74.10;;;;;;10513383;28;20223;-57
2021/09/13 14:21:35;;;;;;;0.80;0.57;;;19.90;74.40;;;;;;10538223;28;20199;-55
2021/09/13 14:26:57;;;;;;;0.90;0.57;;;19.90;73.20;;;;;;10565982;22;20312;-51
2021/09/13 14:32:20;;;;;;;1.17;0.60;;;19.90;73.80;;;;;;10491818;28;20940;-66
2021/09/13 14:37:43;;;;;;;1.60;0.50;;;20.10;73.50;;;;;;10495516;28;20223;-65
2021/09/13 14:43:05;;;;;;;0.87;0.60;;;20.00;72.80;;;;;;10493976;28;20189;-65
2021/09/13 14:48:28;;;;;;;0.83;0.50;;;19.90;73.80;;;;;;10495578;28;20212;-65
2021/09/13 14:53:52;;;;;;;0.73;0.60;;;19.90;74.20;;;;;;10482185;28;20622;-66
2021/09/13 14:59:16;;;;;;;0.60;0.40;;;19.90;73.20;;;;;;10467244;28;20217;-63
2021/09/13 15:04:38;;;;;;;0.63;0.47;;;19.90;73.90;;;;;;10493178;28;20226;-65
2021/09/13 15:10:01;;;;;;;2.47;0.60;;;19.90;74.10;;;;;;10492845;28;20212;-66
2021/09/13 15:15:23;;;;;;;0.60;0.50;;;19.90;73.00;;;;;;10493990;28;20212;-65
2021/09/13 15:20:46;;;;;;;2.17;0.83;;;19.90;73.80;;;;;;10492480;28;20570;-65
2021/09/13 15:26:10;;;;;;;1.00;0.50;;;19.90;73.90;;;;;;10466360;28;20708;-65
2021/09/13 15:31:32;;;;;;;1.70;0.67;;;20.20;72.80;;;;;;10468993;28;20207;-65
2021/09/13 15:36:54;;;;;;;1.27;0.50;;;20.00;73.60;;;;;;10491933;28;20601;-64
2021/09/13 15:42:18;;;;;;;0.60;0.40;;;19.90;73.60;;;;;;10482951;28;20685;-65
2021/09/13 15:47:40;;;;;;;0.40;0.40;;;19.90;73.60;;;;;;10456603;28;20224;-66
2021/09/13 15:53:02;;;;;;;1.20;0.70;;;19.90;74.10;;;;;;10484344;28;20204;-64
2021/09/13 15:58:26;;;;;;;0.40;0.40;;;19.90;73.70;;;;;;10478040;28;20789;-66
2021/09/13 16:03:48;;;;;;;0.80;0.60;;;19.90;73.90;;;;;;10461579;28;20201;-64
2021/09/13 16:09:10;;;;;;;0.80;0.47;;;19.90;74.30;;;;;;10484065;28;20220;-66
2021/09/13 16:14:34;;;;;;;0.43;0.40;;;19.90;73.60;;;;;;10449950;28;20201;-64
2021/09/13 16:19:56;;;;;;;3.47;0.60;;;19.90;74.00;;;;;;10450934;28;20224;-65
2021/09/13 16:25:20;;;;;;;0.93;0.50;;;19.90;74.30;;;;;;10457067;28;20197;-66
2021/09/13 16:30:43;;;;;;;0.77;0.57;;;19.90;73.40;;;;;;10477415;28;20298;-65
2021/09/13 16:36:05;;;;;;;1.67;0.40;;;19.90;74.10;;;;;;10489484;28;20318;-66
2021/09/13 16:41:27;;;;;;;0.90;0.50;;;19.90;74.40;;;;;;10489236;28;20204;-66
2021/09/13 16:46:52;;;;;;;0.90;0.50;;;19.90;73.20;;;;;;10482841;28;20220;-65
2021/09/13 16:52:14;;;;;;;0.70;0.37;;;19.90;73.80;;;;;;10489295;28;20184;-65
2021/09/13 16:57:36;;;;;;;0.73;0.60;;;19.80;74.10;;;;;;10510048;28;20227;-64
2021/09/13 17:03:00;;;;;;;0.63;0.37;;;19.80;74.20;;;;;;10501856;28;20200;-65
2021/09/13 17:08:22;;;;;;;0.60;0.60;;;19.90;73.60;;;;;;10498629;28;20216;-63
2021/09/13 17:13:44;;;;;;;0.80;0.67;;;19.90;74.20;;;;;;10497418;28;20195;-65
2021/09/13 17:19:07;;;;;;;1.00;0.60;;;19.80;74.30;;;;;;10498114;28;20220;-66
2021/09/13 17:24:29;;;;;;;1.23;0.53;;;19.90;73.30;;;;;;10482441;28;20208;-65
2021/09/13 17:29:52;;;;;;;0.73;0.60;;;19.80;74.00;;;;;;10488096;28;20215;-65
2021/09/13 17:35:16;;;;;;;0.83;0.50;;;19.80;74.20;;;;;;10485817;28;20205;-64
2021/09/13 17:40:38;;;;;;;1.25;0.70;;;19.80;74.20;;;;;;10489133;28;20429;-65
2021/09/13 17:46:00;;;;;;;0.93;0.70;;;20.20;72.70;;;;;;10472571;28;20184;-65
2021/09/13 17:51:24;;;;;;;1.17;0.50;;;20.00;73.40;;;;;;10496671;28;20707;-64
2021/09/13 17:56:46;;;;;;;0.60;0.50;;;19.90;73.90;;;;;;10496953;28;20216;-65
2021/09/13 18:02:08;;;;;;;1.20;0.67;;;19.90;73.40;;;;;;10491953;28;20200;-66
2021/09/13 18:07:32;;;;;;;0.60;0.57;;;19.90;74.10;;;;;;10491022;28;20217;-66
2021/09/13 18:12:54;;;;;;;1.00;0.77;;;19.80;74.30;;;;;;10491880;28;20199;-65
2021/09/13 18:18:16;;;;;;;0.63;0.60;;;19.80;74.20;;;;;;10485707;28;20228;-65
2021/09/13 18:23:39;;;;;;;0.83;0.50;;;19.80;74.00;;;;;;10449829;28;20197;-63
2021/09/13 18:29:02;;;;;;;1.20;0.70;;;19.80;74.40;;;;;;10466894;28;20641;-65
2021/09/13 18:34:24;;;;;;;1.50;1.00;;;19.80;74.60;;;;;;10488865;28;20430;-65
2021/09/13 18:39:47;;;;;;;1.43;0.87;;;19.90;73.40;;;;;;10488590;28;20228;-65
2021/09/13 18:45:10;;;;;;;0.90;0.80;;;19.90;74.00;;;;;;10490322;28;20201;-64
2021/09/13 18:50:32;;;;;;;0.67;0.60;;;19.80;74.40;;;;;;10489558;28;20232;-65
2021/09/13 18:55:55;;;;;;;1.90;0.70;;;19.80;74.50;;;;;;10490129;28;20305;-65
2021/09/13 19:01:17;;;;;;;1.63;1.03;;;19.80;73.70;;;;;;10488416;28;20216;-66
2021/09/13 19:06:40;;;;;;;2.00;0.87;;;19.80;74.40;;;;;;10489956;28;20195;-66
2021/09/13 19:12:03;;;;;;;1.13;0.70;;;19.80;74.50;;;;;;10494569;28;20192;-66
2021/09/13 19:17:25;;;;;;;1.20;0.80;;;19.70;74.60;;;;;;10494134;28;20223;-65
2021/09/13 19:22:48;;;;;;;1.87;0.93;;;19.70;74.60;;;;;;10490901;28;20193;-65
2021/09/13 19:28:11;;;;;;;2.63;1.10;;;19.80;74.20;;;;;;10488779;28;20216;-66
2021/09/13 19:33:33;;;;;;;2.80;1.23;;;19.70;74.70;;;;;;10491969;28;20193;-66
2021/09/13 19:38:55;;;;;;;1.87;1.00;;;19.70;74.80;;;;;;10490305;28;20222;-66
2021/09/13 19:44:19;;;;;;;1.10;1.00;;;19.70;74.80;;;;;;10489469;28;20693;-65
2021/09/13 19:49:41;;;;;;;1.60;1.40;;;19.70;74.80;;;;;;10490249;28;20215;-65
2021/09/13 19:55:03;;;;;;;2.23;1.60;;;19.70;74.90;;;;;;10487096;28;20200;-66
2021/09/13 20:00:27;;;;;;;2.17;1.53;;;19.70;74.80;;;;;;10486023;28;20212;-66
2021/09/13 20:05:49;;;;;;;3.43;1.67;;;19.70;75.20;;;;;;10488884;28;20184;-66
2021/09/13 20:11:11;;;;;;;2.13;1.20;;;19.70;75.30;;;;;;10486362;28;20720;-66
2021/09/13 20:16:35;;;;;;;1.80;1.53;;;19.70;75.30;;;;;;10489460;28;20199;-65
2021/09/13 20:21:57;;;;;;;1.67;1.03;;;19.70;75.40;;;;;;10490339;28;20688;-65
2021/09/13 20:27:19;;;;;;;1.80;1.13;;;19.60;75.20;;;;;;10501673;22;20237;-65
2021/09/13 20:32:43;;;;;;;1.73;1.17;;;19.60;75.80;;;;;;10448862;28;20201;-65
2021/09/13 20:38:05;;;;;;;1.90;1.30;;;19.60;75.20;;;;;;10454535;28;20224;-66
2021/09/13 20:43:27;;;;;;;1.97;1.30;;;19.60;75.10;;;;;;10480294;28;20204;-67
2021/09/13 20:48:51;;;;;;;1.30;1.20;;;19.60;75.00;;;;;;10453482;28;20240;-66
2021/09/13 20:54:13;;;;;;;1.57;1.40;;;19.60;74.90;;;;;;10450002;28;20189;-66
2021/09/13 20:59:37;;;;;;;2.17;1.50;;;19.60;74.80;;;;;;10476303;28;20224;-65
2021/09/13 21:05:01;;;;;;;1.93;1.60;;;19.60;74.50;;;;;;10467161;28;20193;-66
2021/09/13 21:10:23;;;;;;;2.33;1.67;;;19.60;74.20;;;;;;10449754;28;20205;-66
2021/09/13 21:15:45;;;;;;;2.13;1.87;;;19.60;74.00;;;;;;10449865;28;20192;-66
2021/09/13 21:21:09;;;;;;;2.93;2.20;;;19.60;73.80;;;;;;10449178;28;20217;-66
2021/09/13 21:26:31;;;;;;;3.10;2.30;;;19.60;73.70;;;;;;10463234;28;20189;-66
2021/09/13 21:31:53;;;;;;;2.90;2.20;;;19.60;74.20;;;;;;10497143;28;20223;-66
2021/09/13 21:37:17;;;;;;;3.13;2.37;;;19.60;73.50;;;;;;10497654;28;20227;-65
2021/09/13 21:42:39;;;;;;;2.77;2.23;;;19.60;73.40;;;;;;10496745;28;20200;-65
2021/09/13 21:48:01;;;;;;;3.90;2.27;;;19.60;73.30;;;;;;10497690;28;20219;-66
2021/09/13 21:53:24;;;;;;;3.33;2.23;;;19.60;73.10;;;;;;10496281;28;20188;-66
2021/09/13 21:58:46;;;;;;;2.67;1.90;;;19.50;73.00;;;;;;10497618;28;20728;-66
2021/09/13 22:04:09;;;;;;;3.03;1.90;;;19.50;72.90;;;;;;10497361;28;20197;-66
2021/09/13 22:09:32;;;;;;;2.97;2.10;;;19.60;72.80;;;;;;10495834;28;20211;-66
2021/09/13 22:14:54;;;;;;;2.00;1.50;;;19.60;72.70;;;;;;10496736;28;20193;-66
2021/09/13 22:20:17;;;;;;;2.13;1.83;;;19.50;72.50;;;;;;10497088;28;20713;-66
2021/09/13 22:25:40;;;;;;;2.80;1.70;;;19.50;72.40;;;;;;10457725;28;20193;-66
2021/09/13 22:31:03;;;;;;;1.60;1.43;;;19.50;72.30;;;;;;10495196;28;20224;-66
2021/09/13 22:36:25;;;;;;;2.20;1.27;;;19.50;72.20;;;;;;10492696;28;20220;-67
2021/09/13 22:41:49;;;;;;;2.00;1.20;;;19.50;72.10;;;;;;10495220;28;20216;-66
2021/09/13 22:47:11;;;;;;;1.50;1.20;;;19.50;72.00;;;;;;10495334;28;20224;-67
2021/09/13 22:52:33;;;;;;;1.10;1.00;;;19.50;72.00;;;;;;10494250;28;20199;-67
2021/09/13 22:57:57;;;;;;;2.97;1.40;;;19.50;71.90;;;;;;10494425;28;20596;-68
2021/09/13 23:03:19;;;;;;;1.40;1.20;;;19.50;71.80;;;;;;10467984;28;20339;-67
2021/09/13 23:08:41;;;;;;;1.70;1.00;;;19.50;71.80;;;;;;10488210;28;20223;-66
2021/09/13 23:14:05;;;;;;;2.17;1.10;;;19.50;71.60;;;;;;10494364;28;20189;-66
2021/09/13 23:19:27;;;;;;;1.10;1.00;;;19.50;71.60;;;;;;10493449;28;20705;-67
2021/09/13 23:24:49;;;;;;;3.00;1.30;;;19.50;71.50;;;;;;10493688;28;20223;-66
2021/09/13 23:30:13;;;;;;;1.53;1.10;;;19.50;71.40;;;;;;10492476;28;20224;-66
2021/09/13 23:35:35;;;;;;;3.57;1.03;;;19.50;71.30;;;;;;10494221;28;20611;-66
2021/09/13 23:40:57;;;;;;;2.10;1.30;;;19.40;71.10;;;;;;10492065;28;20223;-66
2021/09/13 23:46:21;;;;;;;1.63;1.00;;;19.50;71.00;;;;;;10492769;28;20215;-66
2021/09/13 23:51:43;;;;;;;1.87;1.13;;;19.40;70.90;;;;;;10455002;28;20231;-66
2021/09/13 23:57:05;;;;;;;1.20;0.90;;;19.50;70.70;;;;;;10491966;28;20578;-66
